sensor_id;sensor_type;location;lat;lon;timestamp;temperature;humidity
25352;DHT22;13304;48.464;8.712;2023-04-06T00:01:11;4.70;68.90
25352;DHT22;13304;48.464;8.712;2023-04-06T00:03:37;4.70;69.00
25352;DHT22;13304;48.464;8.712;2023-04-06T00:06:06;4.60;69.20
25352;DHT22;13304;48.464;8.712;2023-04-06T00:08:32;4.60;69.40
25352;DHT22;13304;48.464;8.712;2023-04-06T00:11:00;4.60;69.30
25352;DHT22;13304;48.464;8.712;2023-04-06T00:13:26;4.50;69.50
25352;DHT22;13304;48.464;8.712;2023-04-06T00:15:52;4.50;69.50
25352;DHT22;13304;48.464;8.712;2023-04-06T00:18:18;4.50;69.60
25352;DHT22;13304;48.464;8.712;2023-04-06T00:20:44;4.50;69.80
25352;DHT22;13304;48.464;8.712;2023-04-06T00:23:10;4.40;69.70
25352;DHT22;13304;48.464;8.712;2023-04-06T00:25:36;4.40;69.70
25352;DHT22;13304;48.464;8.712;2023-04-06T00:28:02;4.40;69.60
25352;DHT22;13304;48.464;8.712;2023-04-06T00:30:28;4.40;69.80
25352;DHT22;13304;48.464;8.712;2023-04-06T00:32:54;4.30;69.80
25352;DHT22;13304;48.464;8.712;2023-04-06T00:35:21;4.40;69.90
25352;DHT22;13304;48.464;8.712;2023-04-06T00:37:47;4.30;69.70
25352;DHT22;13304;48.464;8.712;2023-04-06T00:40:13;4.40;69.80
25352;DHT22;13304;48.464;8.712;2023-04-06T00:42:40;4.30;69.80
25352;DHT22;13304;48.464;8.712;2023-04-06T00:45:06;4.40;69.90
25352;DHT22;13304;48.464;8.712;2023-04-06T00:47:33;4.40;69.80
25352;DHT22;13304;48.464;8.712;2023-04-06T00:49:59;4.40;69.70
25352;DHT22;13304;48.464;8.712;2023-04-06T00:52:25;4.40;69.70
25352;DHT22;13304;48.464;8.712;2023-04-06T00:54:51;4.40;69.70
25352;DHT22;13304;48.464;8.712;2023-04-06T00:57:17;4.40;69.70
25352;DHT22;13304;48.464;8.712;2023-04-06T00:59:43;4.50;69.70
25352;DHT22;13304;48.464;8.712;2023-04-06T01:02:09;4.50;69.60
25352;DHT22;13304;48.464;8.712;2023-04-06T01:04:35;4.50;69.60
25352;DHT22;13304;48.464;8.712;2023-04-06T01:07:01;4.50;69.40
25352;DHT22;13304;48.464;8.712;2023-04-06T01:09:28;4.50;69.30
25352;DHT22;13304;48.464;8.712;2023-04-06T01:11:57;4.50;69.10
25352;DHT22;13304;48.464;8.712;2023-04-06T01:14:24;4.50;69.00
25352;DHT22;13304;48.464;8.712;2023-04-06T01:16:51;4.40;68.80
25352;DHT22;13304;48.464;8.712;2023-04-06T01:19:17;4.40;68.90
25352;DHT22;13304;48.464;8.712;2023-04-06T01:21:43;4.30;68.60
25352;DHT22;13304;48.464;8.712;2023-04-06T01:24:08;4.30;68.60
25352;DHT22;13304;48.464;8.712;2023-04-06T01:26:37;4.30;68.50
25352;DHT22;13304;48.464;8.712;2023-04-06T01:29:03;4.30;68.70
25352;DHT22;13304;48.464;8.712;2023-04-06T01:31:29;4.20;68.80
25352;DHT22;13304;48.464;8.712;2023-04-06T01:33:55;4.20;69.00
25352;DHT22;13304;48.464;8.712;2023-04-06T01:36:22;4.20;69.20
25352;DHT22;13304;48.464;8.712;2023-04-06T01:38:47;4.20;69.40
25352;DHT22;13304;48.464;8.712;2023-04-06T01:41:13;4.20;69.50
25352;DHT22;13304;48.464;8.712;2023-04-06T01:43:39;4.20;69.40
25352;DHT22;13304;48.464;8.712;2023-04-06T01:46:05;4.20;69.50
25352;DHT22;13304;48.464;8.712;2023-04-06T01:48:31;4.20;69.50
25352;DHT22;13304;48.464;8.712;2023-04-06T01:50:57;4.10;69.40
25352;DHT22;13304;48.464;8.712;2023-04-06T01:53:23;4.10;69.50
25352;DHT22;13304;48.464;8.712;2023-04-06T01:55:49;4.10;69.70
25352;DHT22;13304;48.464;8.712;2023-04-06T01:58:14;4.10;69.80
25352;DHT22;13304;48.464;8.712;2023-04-06T02:00:44;4.00;69.60
25352;DHT22;13304;48.464;8.712;2023-04-06T02:03:09;4.00;69.30
25352;DHT22;13304;48.464;8.712;2023-04-06T02:05:35;3.90;69.10
25352;DHT22;13304;48.464;8.712;2023-04-06T02:08:04;3.90;69.10
25352;DHT22;13304;48.464;8.712;2023-04-06T02:10:31;3.90;69.00
25352;DHT22;13304;48.464;8.712;2023-04-06T02:12:57;3.80;69.10
25352;DHT22;13304;48.464;8.712;2023-04-06T02:15:23;3.80;69.20
25352;DHT22;13304;48.464;8.712;2023-04-06T02:17:50;3.80;69.30
25352;DHT22;13304;48.464;8.712;2023-04-06T02:20:16;3.80;69.60
25352;DHT22;13304;48.464;8.712;2023-04-06T02:22:42;3.70;69.30
25352;DHT22;13304;48.464;8.712;2023-04-06T02:25:08;3.70;69.40
25352;DHT22;13304;48.464;8.712;2023-04-06T02:27:34;3.70;69.40
25352;DHT22;13304;48.464;8.712;2023-04-06T02:30:00;3.70;69.70
25352;DHT22;13304;48.464;8.712;2023-04-06T02:32:25;3.60;69.80
25352;DHT22;13304;48.464;8.712;2023-04-06T02:34:51;3.60;69.90
25352;DHT22;13304;48.464;8.712;2023-04-06T02:37:17;3.60;70.30
25352;DHT22;13304;48.464;8.712;2023-04-06T02:39:43;3.50;70.40
25352;DHT22;13304;48.464;8.712;2023-04-06T02:42:09;3.60;70.50
25352;DHT22;13304;48.464;8.712;2023-04-06T02:44:35;3.50;70.50
25352;DHT22;13304;48.464;8.712;2023-04-06T02:47:01;3.50;70.70
25352;DHT22;13304;48.464;8.712;2023-04-06T02:49:27;3.50;70.60
25352;DHT22;13304;48.464;8.712;2023-04-06T02:51:53;3.50;70.60
25352;DHT22;13304;48.464;8.712;2023-04-06T02:54:19;3.50;70.80
25352;DHT22;13304;48.464;8.712;2023-04-06T02:56:45;3.50;70.90
25352;DHT22;13304;48.464;8.712;2023-04-06T02:59:11;3.40;70.90
25352;DHT22;13304;48.464;8.712;2023-04-06T03:01:36;3.40;70.80
25352;DHT22;13304;48.464;8.712;2023-04-06T03:04:03;3.30;70.90
25352;DHT22;13304;48.464;8.712;2023-04-06T03:06:28;3.30;71.20
25352;DHT22;13304;48.464;8.712;2023-04-06T03:08:55;3.30;71.20
25352;DHT22;13304;48.464;8.712;2023-04-06T03:11:21;3.30;71.30
25352;DHT22;13304;48.464;8.712;2023-04-06T03:13:47;3.30;71.40
25352;DHT22;13304;48.464;8.712;2023-04-06T03:16:13;3.20;71.50
25352;DHT22;13304;48.464;8.712;2023-04-06T03:18:38;3.20;71.40
25352;DHT22;13304;48.464;8.712;2023-04-06T03:21:04;3.20;71.60
25352;DHT22;13304;48.464;8.712;2023-04-06T03:23:30;3.20;71.50
25352;DHT22;13304;48.464;8.712;2023-04-06T03:25:56;3.20;71.50
25352;DHT22;13304;48.464;8.712;2023-04-06T03:28:22;3.20;71.50
25352;DHT22;13304;48.464;8.712;2023-04-06T03:31:12;3.20;71.80
25352;DHT22;13304;48.464;8.712;2023-04-06T03:34:08;3.20;71.80
25352;DHT22;13304;48.464;8.712;2023-04-06T03:36:34;3.20;71.70
25352;DHT22;13304;48.464;8.712;2023-04-06T03:39:00;3.20;72.00
25352;DHT22;13304;48.464;8.712;2023-04-06T03:41:26;3.20;71.80
25352;DHT22;13304;48.464;8.712;2023-04-06T03:43:52;3.20;72.00
25352;DHT22;13304;48.464;8.712;2023-04-06T03:46:18;3.10;71.80
25352;DHT22;13304;48.464;8.712;2023-04-06T03:48:47;3.20;71.80
25352;DHT22;13304;48.464;8.712;2023-04-06T03:51:13;3.10;71.90
25352;DHT22;13304;48.464;8.712;2023-04-06T03:53:38;3.00;72.30
25352;DHT22;13304;48.464;8.712;2023-04-06T03:56:05;3.10;72.00
25352;DHT22;13304;48.464;8.712;2023-04-06T03:58:31;3.10;72.20
25352;DHT22;13304;48.464;8.712;2023-04-06T04:00:56;3.10;72.20
25352;DHT22;13304;48.464;8.712;2023-04-06T04:03:28;3.00;72.10
25352;DHT22;13304;48.464;8.712;2023-04-06T04:05:54;3.00;72.10
25352;DHT22;13304;48.464;8.712;2023-04-06T04:08:21;3.00;72.00
25352;DHT22;13304;48.464;8.712;2023-04-06T04:10:47;3.00;72.20
25352;DHT22;13304;48.464;8.712;2023-04-06T04:13:12;2.90;72.40
25352;DHT22;13304;48.464;8.712;2023-04-06T04:15:38;2.90;72.50
25352;DHT22;13304;48.464;8.712;2023-04-06T04:18:04;2.90;72.60
25352;DHT22;13304;48.464;8.712;2023-04-06T04:20:30;2.90;73.00
25352;DHT22;13304;48.464;8.712;2023-04-06T04:22:56;2.90;72.90
25352;DHT22;13304;48.464;8.712;2023-04-06T04:25:22;2.90;72.90
25352;DHT22;13304;48.464;8.712;2023-04-06T04:27:48;2.80;73.10
25352;DHT22;13304;48.464;8.712;2023-04-06T04:30:14;2.80;73.10
25352;DHT22;13304;48.464;8.712;2023-04-06T04:32:40;2.80;73.10
25352;DHT22;13304;48.464;8.712;2023-04-06T04:35:06;2.80;73.30
25352;DHT22;13304;48.464;8.712;2023-04-06T04:37:32;2.70;73.50
25352;DHT22;13304;48.464;8.712;2023-04-06T04:40:00;2.70;73.30
25352;DHT22;13304;48.464;8.712;2023-04-06T04:42:26;2.70;73.20
25352;DHT22;13304;48.464;8.712;2023-04-06T04:45:21;2.70;73.40
25352;DHT22;13304;48.464;8.712;2023-04-06T04:47:46;2.70;73.70
25352;DHT22;13304;48.464;8.712;2023-04-06T04:50:12;2.70;73.30
25352;DHT22;13304;48.464;8.712;2023-04-06T04:52:38;2.70;73.30
25352;DHT22;13304;48.464;8.712;2023-04-06T04:55:04;2.70;73.30
25352;DHT22;13304;48.464;8.712;2023-04-06T04:57:30;2.70;73.30
25352;DHT22;13304;48.464;8.712;2023-04-06T04:59:56;2.70;73.70
25352;DHT22;13304;48.464;8.712;2023-04-06T05:02:22;2.70;73.50
25352;DHT22;13304;48.464;8.712;2023-04-06T05:04:48;2.70;73.10
25352;DHT22;13304;48.464;8.712;2023-04-06T05:07:28;2.70;73.40
25352;DHT22;13304;48.464;8.712;2023-04-06T05:09:54;2.70;73.40
25352;DHT22;13304;48.464;8.712;2023-04-06T05:12:21;2.70;73.40
25352;DHT22;13304;48.464;8.712;2023-04-06T05:14:47;2.70;73.50
25352;DHT22;13304;48.464;8.712;2023-04-06T05:17:13;2.70;73.70
25352;DHT22;13304;48.464;8.712;2023-04-06T05:19:39;2.70;73.80
25352;DHT22;13304;48.464;8.712;2023-04-06T05:22:04;2.70;73.80
25352;DHT22;13304;48.464;8.712;2023-04-06T05:24:33;2.70;73.80
25352;DHT22;13304;48.464;8.712;2023-04-06T05:27:00;2.70;73.90
25352;DHT22;13304;48.464;8.712;2023-04-06T05:29:26;2.70;73.90
25352;DHT22;13304;48.464;8.712;2023-04-06T05:31:55;2.70;73.80
25352;DHT22;13304;48.464;8.712;2023-04-06T05:34:21;2.70;73.90
25352;DHT22;13304;48.464;8.712;2023-04-06T05:36:47;2.70;73.90
25352;DHT22;13304;48.464;8.712;2023-04-06T05:39:13;2.80;74.00
25352;DHT22;13304;48.464;8.712;2023-04-06T05:41:41;2.80;74.00
25352;DHT22;13304;48.464;8.712;2023-04-06T05:44:07;2.80;74.00
25352;DHT22;13304;48.464;8.712;2023-04-06T05:46:36;2.80;73.90
25352;DHT22;13304;48.464;8.712;2023-04-06T05:49:02;2.80;74.00
25352;DHT22;13304;48.464;8.712;2023-04-06T05:51:28;2.80;74.00
25352;DHT22;13304;48.464;8.712;2023-04-06T05:53:54;2.90;74.10
25352;DHT22;13304;48.464;8.712;2023-04-06T05:56:20;2.90;74.10
25352;DHT22;13304;48.464;8.712;2023-04-06T05:58:46;2.90;74.20
25352;DHT22;13304;48.464;8.712;2023-04-06T06:01:11;2.90;74.30
25352;DHT22;13304;48.464;8.712;2023-04-06T06:03:37;3.00;74.60
25352;DHT22;13304;48.464;8.712;2023-04-06T06:06:04;3.00;74.60
25352;DHT22;13304;48.464;8.712;2023-04-06T06:08:30;3.00;74.70
25352;DHT22;13304;48.464;8.712;2023-04-06T06:10:56;3.10;74.80
25352;DHT22;13304;48.464;8.712;2023-04-06T06:13:23;3.10;74.80
25352;DHT22;13304;48.464;8.712;2023-04-06T06:15:49;3.20;74.90
25352;DHT22;13304;48.464;8.712;2023-04-06T06:18:16;3.20;74.90
25352;DHT22;13304;48.464;8.712;2023-04-06T06:20:41;3.30;74.90
25352;DHT22;13304;48.464;8.712;2023-04-06T06:23:07;3.30;74.90
25352;DHT22;13304;48.464;8.712;2023-04-06T06:25:33;3.30;74.80
25352;DHT22;13304;48.464;8.712;2023-04-06T06:27:59;3.40;74.90
25352;DHT22;13304;48.464;8.712;2023-04-06T06:30:25;3.40;74.50
25352;DHT22;13304;48.464;8.712;2023-04-06T06:32:51;3.50;74.70
25352;DHT22;13304;48.464;8.712;2023-04-06T06:35:17;3.50;74.60
25352;DHT22;13304;48.464;8.712;2023-04-06T06:37:43;3.60;74.70
25352;DHT22;13304;48.464;8.712;2023-04-06T06:40:10;3.60;74.70
25352;DHT22;13304;48.464;8.712;2023-04-06T06:42:38;3.70;74.90
25352;DHT22;13304;48.464;8.712;2023-04-06T06:45:06;3.70;74.90
25352;DHT22;13304;48.464;8.712;2023-04-06T06:47:32;3.80;75.10
25352;DHT22;13304;48.464;8.712;2023-04-06T06:49:58;3.80;75.00
25352;DHT22;13304;48.464;8.712;2023-04-06T06:52:24;3.90;75.10
25352;DHT22;13304;48.464;8.712;2023-04-06T06:54:50;3.90;75.00
25352;DHT22;13304;48.464;8.712;2023-04-06T06:57:16;4.00;75.70
25352;DHT22;13304;48.464;8.712;2023-04-06T06:59:41;4.10;75.90
25352;DHT22;13304;48.464;8.712;2023-04-06T07:02:07;4.10;75.10
25352;DHT22;13304;48.464;8.712;2023-04-06T07:04:33;4.20;75.00
25352;DHT22;13304;48.464;8.712;2023-04-06T07:06:59;4.20;75.00
25352;DHT22;13304;48.464;8.712;2023-04-06T07:09:34;4.30;75.10
25352;DHT22;13304;48.464;8.712;2023-04-06T07:12:00;4.30;74.90
25352;DHT22;13304;48.464;8.712;2023-04-06T07:14:26;4.40;74.80
25352;DHT22;13304;48.464;8.712;2023-04-06T07:16:55;4.50;74.70
25352;DHT22;13304;48.464;8.712;2023-04-06T07:19:20;4.50;74.40
25352;DHT22;13304;48.464;8.712;2023-04-06T07:21:47;4.60;74.20
25352;DHT22;13304;48.464;8.712;2023-04-06T07:24:15;4.60;73.90
25352;DHT22;13304;48.464;8.712;2023-04-06T07:26:44;4.70;73.90
25352;DHT22;13304;48.464;8.712;2023-04-06T07:29:09;4.80;73.50
25352;DHT22;13304;48.464;8.712;2023-04-06T07:31:35;4.80;73.40
25352;DHT22;13304;48.464;8.712;2023-04-06T07:34:07;4.90;73.40
25352;DHT22;13304;48.464;8.712;2023-04-06T07:36:33;5.00;73.40
25352;DHT22;13304;48.464;8.712;2023-04-06T07:39:08;5.10;73.80
25352;DHT22;13304;48.464;8.712;2023-04-06T07:41:36;5.10;73.20
25352;DHT22;13304;48.464;8.712;2023-04-06T07:44:02;5.20;73.20
25352;DHT22;13304;48.464;8.712;2023-04-06T07:46:28;5.30;72.70
25352;DHT22;13304;48.464;8.712;2023-04-06T07:48:57;5.40;73.30
25352;DHT22;13304;48.464;8.712;2023-04-06T07:51:23;5.40;72.60
25352;DHT22;13304;48.464;8.712;2023-04-06T07:53:53;5.50;72.50
25352;DHT22;13304;48.464;8.712;2023-04-06T07:56:19;5.60;72.80
25352;DHT22;13304;48.464;8.712;2023-04-06T07:58:49;5.70;73.10
25352;DHT22;13304;48.464;8.712;2023-04-06T08:01:15;5.80;73.30
25352;DHT22;13304;48.464;8.712;2023-04-06T08:03:41;5.90;73.20
25352;DHT22;13304;48.464;8.712;2023-04-06T08:06:07;6.00;73.10
25352;DHT22;13304;48.464;8.712;2023-04-06T08:08:32;6.10;72.60
25352;DHT22;13304;48.464;8.712;2023-04-06T08:10:58;6.20;72.20
25352;DHT22;13304;48.464;8.712;2023-04-06T08:13:24;6.30;72.80
25352;DHT22;13304;48.464;8.712;2023-04-06T08:15:50;6.40;72.90
25352;DHT22;13304;48.464;8.712;2023-04-06T08:18:15;6.40;72.90
25352;DHT22;13304;48.464;8.712;2023-04-06T08:20:41;6.50;72.80
25352;DHT22;13304;48.464;8.712;2023-04-06T08:23:07;6.60;71.00
25352;DHT22;13304;48.464;8.712;2023-04-06T08:25:36;6.70;71.70
25352;DHT22;13304;48.464;8.712;2023-04-06T08:28:02;6.80;71.50
25352;DHT22;13304;48.464;8.712;2023-04-06T08:30:29;6.90;71.60
25352;DHT22;13304;48.464;8.712;2023-04-06T08:32:55;7.00;71.40
25352;DHT22;13304;48.464;8.712;2023-04-06T08:35:23;7.10;71.70
25352;DHT22;13304;48.464;8.712;2023-04-06T08:37:49;7.20;70.80
25352;DHT22;13304;48.464;8.712;2023-04-06T08:40:15;7.20;69.40
25352;DHT22;13304;48.464;8.712;2023-04-06T08:42:47;7.30;70.20
25352;DHT22;13304;48.464;8.712;2023-04-06T08:45:16;7.40;69.10
25352;DHT22;13304;48.464;8.712;2023-04-06T08:47:43;7.50;69.00
25352;DHT22;13304;48.464;8.712;2023-04-06T08:50:10;7.60;69.50
25352;DHT22;13304;48.464;8.712;2023-04-06T08:52:39;7.70;68.50
25352;DHT22;13304;48.464;8.712;2023-04-06T08:55:06;7.80;68.30
25352;DHT22;13304;48.464;8.712;2023-04-06T08:57:35;7.90;68.70
25352;DHT22;13304;48.464;8.712;2023-04-06T09:00:02;8.00;66.60
25352;DHT22;13304;48.464;8.712;2023-04-06T09:02:28;8.10;67.90
25352;DHT22;13304;48.464;8.712;2023-04-06T09:04:54;8.10;67.20
25352;DHT22;13304;48.464;8.712;2023-04-06T09:07:20;8.20;66.80
25352;DHT22;13304;48.464;8.712;2023-04-06T09:09:47;8.30;67.20
25352;DHT22;13304;48.464;8.712;2023-04-06T09:12:30;8.40;65.30
25352;DHT22;13304;48.464;8.712;2023-04-06T09:14:57;8.50;65.60
25352;DHT22;13304;48.464;8.712;2023-04-06T09:17:28;8.60;64.40
25352;DHT22;13304;48.464;8.712;2023-04-06T09:19:54;8.70;65.40
25352;DHT22;13304;48.464;8.712;2023-04-06T09:22:21;8.70;64.40
25352;DHT22;13304;48.464;8.712;2023-04-06T09:24:49;8.80;64.00
25352;DHT22;13304;48.464;8.712;2023-04-06T09:27:15;8.90;65.10
25352;DHT22;13304;48.464;8.712;2023-04-06T09:29:42;9.00;63.00
25352;DHT22;13304;48.464;8.712;2023-04-06T09:32:09;9.10;63.60
25352;DHT22;13304;48.464;8.712;2023-04-06T09:34:42;9.10;63.00
25352;DHT22;13304;48.464;8.712;2023-04-06T09:37:14;9.10;60.50
25352;DHT22;13304;48.464;8.712;2023-04-06T09:39:40;9.20;59.20
25352;DHT22;13304;48.464;8.712;2023-04-06T09:42:06;9.20;58.30
25352;DHT22;13304;48.464;8.712;2023-04-06T09:44:32;9.30;60.50
25352;DHT22;13304;48.464;8.712;2023-04-06T09:46:58;9.30;59.40
25352;DHT22;13304;48.464;8.712;2023-04-06T09:49:24;9.40;59.60
25352;DHT22;13304;48.464;8.712;2023-04-06T09:52:03;9.50;59.80
25352;DHT22;13304;48.464;8.712;2023-04-06T09:54:32;9.50;59.40
25352;DHT22;13304;48.464;8.712;2023-04-06T09:57:26;9.60;59.10
25352;DHT22;13304;48.464;8.712;2023-04-06T10:00:04;9.60;59.10
25352;DHT22;13304;48.464;8.712;2023-04-06T10:03:08;9.70;59.50
25352;DHT22;13304;48.464;8.712;2023-04-06T10:05:43;9.80;57.90
25352;DHT22;13304;48.464;8.712;2023-04-06T10:08:11;9.90;58.20
25352;DHT22;13304;48.464;8.712;2023-04-06T10:10:38;9.90;53.20
25352;DHT22;13304;48.464;8.712;2023-04-06T10:13:04;10.00;55.80
25352;DHT22;13304;48.464;8.712;2023-04-06T10:15:31;10.00;53.40
25352;DHT22;13304;48.464;8.712;2023-04-06T10:17:58;10.10;56.20
25352;DHT22;13304;48.464;8.712;2023-04-06T10:20:42;10.20;56.90
25352;DHT22;13304;48.464;8.712;2023-04-06T10:26:02;10.20;54.60
25352;DHT22;13304;48.464;8.712;2023-04-06T10:29:06;10.30;54.10
25352;DHT22;13304;48.464;8.712;2023-04-06T10:31:28;10.40;53.60
25352;DHT22;13304;48.464;8.712;2023-04-06T10:33:59;10.40;52.30
25352;DHT22;13304;48.464;8.712;2023-04-06T10:36:43;10.50;54.40
25352;DHT22;13304;48.464;8.712;2023-04-06T10:39:08;10.50;52.50
25352;DHT22;13304;48.464;8.712;2023-04-06T10:41:35;10.50;53.90
25352;DHT22;13304;48.464;8.712;2023-04-06T10:44:01;10.60;54.40
25352;DHT22;13304;48.464;8.712;2023-04-06T10:46:29;10.70;51.80
25352;DHT22;13304;48.464;8.712;2023-04-06T10:48:56;10.70;49.90
25352;DHT22;13304;48.464;8.712;2023-04-06T10:51:26;10.70;49.40
25352;DHT22;13304;48.464;8.712;2023-04-06T10:53:54;10.70;50.80
25352;DHT22;13304;48.464;8.712;2023-04-06T10:56:24;10.80;51.70
25352;DHT22;13304;48.464;8.712;2023-04-06T10:58:54;10.80;50.80
25352;DHT22;13304;48.464;8.712;2023-04-06T11:01:24;10.90;53.30
25352;DHT22;13304;48.464;8.712;2023-04-06T11:03:56;11.00;53.40
25352;DHT22;13304;48.464;8.712;2023-04-06T11:06:28;11.00;53.30
25352;DHT22;13304;48.464;8.712;2023-04-06T11:08:56;11.00;51.80
25352;DHT22;13304;48.464;8.712;2023-04-06T11:11:25;11.10;52.30
25352;DHT22;13304;48.464;8.712;2023-04-06T11:13:53;11.20;51.90
25352;DHT22;13304;48.464;8.712;2023-04-06T11:16:20;11.20;51.30
25352;DHT22;13304;48.464;8.712;2023-04-06T11:18:55;11.30;52.70
25352;DHT22;13304;48.464;8.712;2023-04-06T11:21:42;11.30;51.40
25352;DHT22;13304;48.464;8.712;2023-04-06T11:29:11;11.50;51.80
25352;DHT22;13304;48.464;8.712;2023-04-06T11:31:41;11.50;52.20
25352;DHT22;13304;48.464;8.712;2023-04-06T11:34:11;11.60;52.60
25352;DHT22;13304;48.464;8.712;2023-04-06T11:36:40;11.60;52.00
25352;DHT22;13304;48.464;8.712;2023-04-06T11:39:06;11.70;51.30
25352;DHT22;13304;48.464;8.712;2023-04-06T11:41:32;11.60;48.30
25352;DHT22;13304;48.464;8.712;2023-04-06T11:44:01;11.70;51.90
25352;DHT22;13304;48.464;8.712;2023-04-06T11:46:30;11.80;50.10
25352;DHT22;13304;48.464;8.712;2023-04-06T11:49:02;11.80;51.50
25352;DHT22;13304;48.464;8.712;2023-04-06T11:51:28;11.70;47.80
25352;DHT22;13304;48.464;8.712;2023-04-06T11:53:54;11.80;50.30
25352;DHT22;13304;48.464;8.712;2023-04-06T11:56:28;11.90;50.60
25352;DHT22;13304;48.464;8.712;2023-04-06T11:58:56;11.90;49.30
25352;DHT22;13304;48.464;8.712;2023-04-06T12:01:23;12.00;49.60
25352;DHT22;13304;48.464;8.712;2023-04-06T12:03:49;12.00;49.40
25352;DHT22;13304;48.464;8.712;2023-04-06T12:06:16;12.10;49.90
25352;DHT22;13304;48.464;8.712;2023-04-06T12:08:42;12.10;51.10
25352;DHT22;13304;48.464;8.712;2023-04-06T12:11:11;12.20;49.60
25352;DHT22;13304;48.464;8.712;2023-04-06T12:13:37;12.20;50.00
25352;DHT22;13304;48.464;8.712;2023-04-06T12:16:04;12.30;50.90
25352;DHT22;13304;48.464;8.712;2023-04-06T12:18:30;12.30;49.40
25352;DHT22;13304;48.464;8.712;2023-04-06T12:20:56;12.30;48.00
25352;DHT22;13304;48.464;8.712;2023-04-06T12:23:21;12.40;48.80
25352;DHT22;13304;48.464;8.712;2023-04-06T12:25:47;12.40;50.60
25352;DHT22;13304;48.464;8.712;2023-04-06T12:28:13;12.40;49.30
25352;DHT22;13304;48.464;8.712;2023-04-06T12:30:39;12.40;49.70
25352;DHT22;13304;48.464;8.712;2023-04-06T12:33:06;12.50;49.70
25352;DHT22;13304;48.464;8.712;2023-04-06T12:35:36;12.50;49.30
25352;DHT22;13304;48.464;8.712;2023-04-06T12:38:02;12.50;45.50
25352;DHT22;13304;48.464;8.712;2023-04-06T12:40:28;12.50;47.90
25352;DHT22;13304;48.464;8.712;2023-04-06T12:42:54;12.50;49.10
25352;DHT22;13304;48.464;8.712;2023-04-06T12:45:20;12.50;49.60
25352;DHT22;13304;48.464;8.712;2023-04-06T12:47:46;12.60;49.00
25352;DHT22;13304;48.464;8.712;2023-04-06T12:50:12;12.50;49.60
25352;DHT22;13304;48.464;8.712;2023-04-06T12:52:37;12.50;49.40
25352;DHT22;13304;48.464;8.712;2023-04-06T12:55:04;12.60;48.20
25352;DHT22;13304;48.464;8.712;2023-04-06T12:57:30;12.50;47.90
25352;DHT22;13304;48.464;8.712;2023-04-06T12:59:57;12.60;49.40
25352;DHT22;13304;48.464;8.712;2023-04-06T13:02:23;12.60;49.20
25352;DHT22;13304;48.464;8.712;2023-04-06T13:04:49;12.70;49.80
25352;DHT22;13304;48.464;8.712;2023-04-06T13:07:15;12.70;47.20
25352;DHT22;13304;48.464;8.712;2023-04-06T13:09:41;12.80;47.40
25352;DHT22;13304;48.464;8.712;2023-04-06T13:12:07;12.80;48.90
25352;DHT22;13304;48.464;8.712;2023-04-06T13:14:33;12.90;47.40
25352;DHT22;13304;48.464;8.712;2023-04-06T13:16:59;12.90;47.50
25352;DHT22;13304;48.464;8.712;2023-04-06T13:19:25;12.90;48.40
25352;DHT22;13304;48.464;8.712;2023-04-06T13:21:52;13.00;47.50
25352;DHT22;13304;48.464;8.712;2023-04-06T13:24:18;13.00;46.00
25352;DHT22;13304;48.464;8.712;2023-04-06T13:26:45;13.00;45.90
25352;DHT22;13304;48.464;8.712;2023-04-06T13:29:11;13.10;47.40
25352;DHT22;13304;48.464;8.712;2023-04-06T13:31:37;13.10;46.80
25352;DHT22;13304;48.464;8.712;2023-04-06T13:34:03;13.10;47.10
25352;DHT22;13304;48.464;8.712;2023-04-06T13:36:29;13.20;47.80
25352;DHT22;13304;48.464;8.712;2023-04-06T13:38:55;13.20;46.90
25352;DHT22;13304;48.464;8.712;2023-04-06T13:41:23;13.30;47.30
25352;DHT22;13304;48.464;8.712;2023-04-06T13:43:49;13.30;46.30
25352;DHT22;13304;48.464;8.712;2023-04-06T13:46:16;13.40;46.60
25352;DHT22;13304;48.464;8.712;2023-04-06T13:48:43;13.50;48.00
25352;DHT22;13304;48.464;8.712;2023-04-06T13:51:10;13.60;47.50
25352;DHT22;13304;48.464;8.712;2023-04-06T13:53:36;13.60;46.90
25352;DHT22;13304;48.464;8.712;2023-04-06T13:56:02;13.70;46.80
25352;DHT22;13304;48.464;8.712;2023-04-06T13:58:27;13.70;45.80
25352;DHT22;13304;48.464;8.712;2023-04-06T14:00:53;13.80;44.00
25352;DHT22;13304;48.464;8.712;2023-04-06T14:03:19;13.80;43.80
25352;DHT22;13304;48.464;8.712;2023-04-06T14:05:45;13.90;46.10
25352;DHT22;13304;48.464;8.712;2023-04-06T14:08:11;13.90;46.00
25352;DHT22;13304;48.464;8.712;2023-04-06T14:10:40;13.90;44.10
25352;DHT22;13304;48.464;8.712;2023-04-06T14:13:07;13.90;42.30
25352;DHT22;13304;48.464;8.712;2023-04-06T14:15:34;13.90;42.10
25352;DHT22;13304;48.464;8.712;2023-04-06T14:18:00;13.90;42.50
25352;DHT22;13304;48.464;8.712;2023-04-06T14:20:27;13.90;42.70
25352;DHT22;13304;48.464;8.712;2023-04-06T14:22:52;13.90;41.40
25352;DHT22;13304;48.464;8.712;2023-04-06T14:25:20;14.00;41.10
25352;DHT22;13304;48.464;8.712;2023-04-06T14:27:45;13.90;41.80
25352;DHT22;13304;48.464;8.712;2023-04-06T14:30:11;13.90;42.80
25352;DHT22;13304;48.464;8.712;2023-04-06T14:32:37;14.00;43.40
25352;DHT22;13304;48.464;8.712;2023-04-06T14:35:06;14.00;42.90
25352;DHT22;13304;48.464;8.712;2023-04-06T14:37:32;14.00;42.90
25352;DHT22;13304;48.464;8.712;2023-04-06T14:39:58;14.10;43.90
25352;DHT22;13304;48.464;8.712;2023-04-06T14:42:23;14.10;44.40
25352;DHT22;13304;48.464;8.712;2023-04-06T14:44:50;14.20;43.70
25352;DHT22;13304;48.464;8.712;2023-04-06T14:47:15;14.20;43.70
25352;DHT22;13304;48.464;8.712;2023-04-06T14:49:49;14.20;42.00
25352;DHT22;13304;48.464;8.712;2023-04-06T14:52:16;14.30;43.50
25352;DHT22;13304;48.464;8.712;2023-04-06T14:54:41;14.30;43.60
25352;DHT22;13304;48.464;8.712;2023-04-06T14:57:07;14.30;43.20
25352;DHT22;13304;48.464;8.712;2023-04-06T14:59:33;14.40;43.60
25352;DHT22;13304;48.464;8.712;2023-04-06T15:01:59;14.40;43.10
25352;DHT22;13304;48.464;8.712;2023-04-06T15:04:29;14.40;42.50
25352;DHT22;13304;48.464;8.712;2023-04-06T15:06:55;14.40;41.90
25352;DHT22;13304;48.464;8.712;2023-04-06T15:09:21;14.50;43.00
25352;DHT22;13304;48.464;8.712;2023-04-06T15:11:47;14.40;42.30
25352;DHT22;13304;48.464;8.712;2023-04-06T15:14:13;14.40;41.50
25352;DHT22;13304;48.464;8.712;2023-04-06T15:16:40;14.30;41.70
25352;DHT22;13304;48.464;8.712;2023-04-06T15:19:05;14.30;40.50
25352;DHT22;13304;48.464;8.712;2023-04-06T15:21:31;14.20;41.40
25352;DHT22;13304;48.464;8.712;2023-04-06T15:23:57;14.20;42.20
25352;DHT22;13304;48.464;8.712;2023-04-06T15:26:23;14.20;42.70
25352;DHT22;13304;48.464;8.712;2023-04-06T15:28:49;14.10;41.50
25352;DHT22;13304;48.464;8.712;2023-04-06T15:31:19;14.10;41.50
25352;DHT22;13304;48.464;8.712;2023-04-06T15:33:48;14.00;42.00
25352;DHT22;13304;48.464;8.712;2023-04-06T15:36:31;14.00;42.10
25352;DHT22;13304;48.464;8.712;2023-04-06T15:38:58;13.90;40.30
25352;DHT22;13304;48.464;8.712;2023-04-06T15:41:24;13.90;42.30
25352;DHT22;13304;48.464;8.712;2023-04-06T15:43:53;13.90;43.30
25352;DHT22;13304;48.464;8.712;2023-04-06T15:46:20;13.80;43.00
25352;DHT22;13304;48.464;8.712;2023-04-06T15:48:46;13.80;43.00